sensor_id;sensor_type;location;lat;lon;timestamp;pressure;altitude;pressure_sealevel;temperature;humidity
58875;BME280;44652;49.040;12.126;2022-08-26T05:53:21;97314.31;;;17.91;100.00
58875;BME280;44652;49.040;12.126;2022-08-26T05:55:52;97323.13;;;18.03;100.00
58875;BME280;44652;49.040;12.126;2022-08-26T05:58:20;97308.97;;;17.94;100.00
58875;BME280;44652;49.040;12.126;2022-08-26T06:01:05;97318.63;;;18.09;99.78
58875;BME280;44652;49.040;12.126;2022-08-26T06:03:34;97308.00;;;18.06;99.80
58875;BME280;44652;49.040;12.126;2022-08-26T06:06:05;97330.97;;;18.21;98.84
58875;BME280;44652;49.040;12.126;2022-08-26T06:08:32;97306.13;;;18.17;99.18
58875;BME280;44652;49.040;12.126;2022-08-26T06:11:01;97304.34;;;18.16;98.51
58875;BME280;44652;49.040;12.126;2022-08-26T06:13:28;97326.44;;;18.34;97.30
58875;BME280;44652;49.040;12.126;2022-08-26T06:15:58;97316.66;;;18.33;96.62
58875;BME280;44652;49.040;12.126;2022-08-26T06:18:28;97329.91;;;18.43;97.09
58875;BME280;44652;49.040;12.126;2022-08-26T06:21:17;97327.22;;;18.43;96.73
58875;BME280;44652;49.040;12.126;2022-08-26T06:23:46;97323.63;;;18.49;95.98
58875;BME280;44652;49.040;12.126;2022-08-26T06:26:33;97329.03;;;18.41;96.46
58875;BME280;44652;49.040;12.126;2022-08-26T06:29:03;97334.22;;;18.55;95.86
58875;BME280;44652;49.040;12.126;2022-08-26T06:31:30;97335.09;;;18.60;95.08
58875;BME280;44652;49.040;12.126;2022-08-26T06:33:58;97332.38;;;18.65;95.04
58875;BME280;44652;49.040;12.126;2022-08-26T06:36:28;97311.94;;;18.59;95.12
58875;BME280;44652;49.040;12.126;2022-08-26T06:38:59;97326.06;;;18.74;94.86
58875;BME280;44652;49.040;12.126;2022-08-26T06:41:26;97328.59;;;18.87;94.13
58875;BME280;44652;49.040;12.126;2022-08-26T06:43:53;97324.97;;;18.94;94.19
58875;BME280;44652;49.040;12.126;2022-08-26T06:46:20;97322.97;;;19.10;94.12
58875;BME280;44652;49.040;12.126;2022-08-26T06:48:47;97299.75;;;19.15;93.04
58875;BME280;44652;49.040;12.126;2022-08-26T06:51:22;97307.50;;;19.35;92.80
58875;BME280;44652;49.040;12.126;2022-08-26T06:53:51;97314.53;;;19.44;90.94
58875;BME280;44652;49.040;12.126;2022-08-26T06:56:21;97317.00;;;19.62;91.24
58875;BME280;44652;49.040;12.126;2022-08-26T06:58:50;97305.31;;;19.68;90.67
58875;BME280;44652;49.040;12.126;2022-08-26T07:01:21;97306.88;;;19.83;88.94
58875;BME280;44652;49.040;12.126;2022-08-26T07:03:50;97305.03;;;19.86;89.58
58875;BME280;44652;49.040;12.126;2022-08-26T07:06:20;97325.34;;;19.98;88.78
58875;BME280;44652;49.040;12.126;2022-08-26T07:08:51;97319.13;;;19.96;89.31
58875;BME280;44652;49.040;12.126;2022-08-26T07:11:19;97319.78;;;20.10;88.51
58875;BME280;44652;49.040;12.126;2022-08-26T07:13:46;97315.44;;;20.03;89.17
58875;BME280;44652;49.040;12.126;2022-08-26T07:16:15;97321.75;;;20.01;88.96
58875;BME280;44652;49.040;12.126;2022-08-26T07:18:44;97304.06;;;19.90;90.00
58875;BME280;44652;49.040;12.126;2022-08-26T07:21:12;97326.16;;;20.05;89.58
58875;BME280;44652;49.040;12.126;2022-08-26T07:23:40;97309.25;;;20.00;89.33
58875;BME280;44652;49.040;12.126;2022-08-26T07:26:10;97333.03;;;20.20;88.18
58875;BME280;44652;49.040;12.126;2022-08-26T07:28:37;97295.25;;;19.85;89.26
58875;BME280;44652;49.040;12.126;2022-08-26T07:31:05;97314.56;;;20.04;88.90
58875;BME280;44652;49.040;12.126;2022-08-26T07:33:35;97314.28;;;20.21;88.23
58875;BME280;44652;49.040;12.126;2022-08-26T07:36:05;97316.78;;;20.30;87.30
58875;BME280;44652;49.040;12.126;2022-08-26T07:38:33;97313.09;;;20.37;86.80
58875;BME280;44652;49.040;12.126;2022-08-26T07:41:00;97324.50;;;20.49;86.38
58875;BME280;44652;49.040;12.126;2022-08-26T07:43:28;97331.25;;;20.71;85.60
58875;BME280;44652;49.040;12.126;2022-08-26T07:45:55;97334.06;;;20.65;85.53
58875;BME280;44652;49.040;12.126;2022-08-26T07:48:22;97326.47;;;20.88;85.33
58875;BME280;44652;49.040;12.126;2022-08-26T07:50:50;97330.63;;;21.05;84.38
58875;BME280;44652;49.040;12.126;2022-08-26T07:53:20;97315.31;;;21.11;82.95
58875;BME280;44652;49.040;12.126;2022-08-26T07:55:50;97312.25;;;21.28;83.83
58875;BME280;44652;49.040;12.126;2022-08-26T07:58:17;97307.59;;;21.40;82.93
58875;BME280;44652;49.040;12.126;2022-08-26T08:00:44;97299.34;;;21.49;83.48
58875;BME280;44652;49.040;12.126;2022-08-26T08:03:11;97316.84;;;21.65;81.33
58875;BME280;44652;49.040;12.126;2022-08-26T08:05:41;97298.03;;;21.67;80.79
58875;BME280;44652;49.040;12.126;2022-08-26T08:08:08;97314.56;;;21.87;80.71
58875;BME280;44652;49.040;12.126;2022-08-26T08:10:53;97320.56;;;21.98;79.81
58875;BME280;44652;49.040;12.126;2022-08-26T08:13:21;97305.97;;;22.10;78.44
58875;BME280;44652;49.040;12.126;2022-08-26T08:15:48;97319.88;;;22.27;78.18
58875;BME280;44652;49.040;12.126;2022-08-26T08:18:16;97301.19;;;22.24;77.30
58875;BME280;44652;49.040;12.126;2022-08-26T08:20:46;97320.22;;;22.49;76.20
58875;BME280;44652;49.040;12.126;2022-08-26T08:23:31;97314.69;;;22.55;76.28
58875;BME280;44652;49.040;12.126;2022-08-26T08:26:06;97304.78;;;22.90;75.99
58875;BME280;44652;49.040;12.126;2022-08-26T08:28:35;97299.41;;;22.90;74.48
58875;BME280;44652;49.040;12.126;2022-08-26T08:31:02;97309.06;;;22.99;74.58
58875;BME280;44652;49.040;12.126;2022-08-26T08:33:29;97277.78;;;22.96;73.48
58875;BME280;44652;49.040;12.126;2022-08-26T08:35:57;97287.97;;;23.16;72.18
58875;BME280;44652;49.040;12.126;2022-08-26T08:38:24;97296.50;;;23.30;72.48
58875;BME280;44652;49.040;12.126;2022-08-26T08:40:51;97278.41;;;23.36;73.00
58875;BME280;44652;49.040;12.126;2022-08-26T08:43:31;97296.53;;;23.59;71.21
58875;BME280;44652;49.040;12.126;2022-08-26T08:46:10;97288.28;;;23.66;71.25
58875;BME280;44652;49.040;12.126;2022-08-26T08:48:44;97294.16;;;23.79;70.36
58875;BME280;44652;49.040;12.126;2022-08-26T08:53:54;97267.72;;;23.92;69.16
58875;BME280;44652;49.040;12.126;2022-08-26T08:56:40;97269.00;;;23.80;69.30
58875;BME280;44652;49.040;12.126;2022-08-26T08:59:19;97278.91;;;23.79;70.29
58875;BME280;44652;49.040;12.126;2022-08-26T09:07:25;97259.25;;;24.04;69.30
58875;BME280;44652;49.040;12.126;2022-08-26T09:09:56;97270.16;;;23.99;68.00
58875;BME280;44652;49.040;12.126;2022-08-26T09:12:28;97273.50;;;24.08;67.14
58875;BME280;44652;49.040;12.126;2022-08-26T09:15:09;97254.13;;;23.96;67.38
58875;BME280;44652;49.040;12.126;2022-08-26T09:18:02;97269.81;;;24.10;67.64
58875;BME280;44652;49.040;12.126;2022-08-26T09:21:07;97264.69;;;24.02;67.24
58875;BME280;44652;49.040;12.126;2022-08-26T09:23:37;97272.63;;;24.07;69.15
58875;BME280;44652;49.040;12.126;2022-08-26T09:29:02;97273.84;;;23.97;68.59
58875;BME280;44652;49.040;12.126;2022-08-26T09:31:32;97269.38;;;23.96;68.40
58875;BME280;44652;49.040;12.126;2022-08-26T09:34:24;97246.56;;;24.34;67.12
58875;BME280;44652;49.040;12.126;2022-08-26T09:36:57;97250.78;;;24.43;66.14
58875;BME280;44652;49.040;12.126;2022-08-26T09:45:00;97251.44;;;24.99;65.73
58875;BME280;44652;49.040;12.126;2022-08-26T09:47:31;97243.31;;;25.01;64.98
58875;BME280;44652;49.040;12.126;2022-08-26T09:50:04;97241.69;;;24.95;65.59
58875;BME280;44652;49.040;12.126;2022-08-26T09:52:36;97222.28;;;25.11;63.51
58875;BME280;44652;49.040;12.126;2022-08-26T10:00:32;97230.72;;;25.25;61.25
58875;BME280;44652;49.040;12.126;2022-08-26T10:03:07;97220.34;;;25.14;61.59
58875;BME280;44652;49.040;12.126;2022-08-26T10:08:22;97210.28;;;25.19;63.39
58875;BME280;44652;49.040;12.126;2022-08-26T10:10:49;97212.53;;;25.30;64.94
58875;BME280;44652;49.040;12.126;2022-08-26T10:13:26;97217.72;;;25.13;66.51
58875;BME280;44652;49.040;12.126;2022-08-26T10:15:59;97208.66;;;24.90;67.71
58875;BME280;44652;49.040;12.126;2022-08-26T10:18:41;97214.06;;;24.89;67.07
58875;BME280;44652;49.040;12.126;2022-08-26T10:21:20;97193.69;;;24.82;67.18
58875;BME280;44652;49.040;12.126;2022-08-26T10:23:51;97194.22;;;25.16;67.28
58875;BME280;44652;49.040;12.126;2022-08-26T10:29:17;97193.44;;;25.58;64.19
58875;BME280;44652;49.040;12.126;2022-08-26T10:31:57;97178.44;;;25.73;63.18
58875;BME280;44652;49.040;12.126;2022-08-26T10:34:30;97167.03;;;25.88;62.22
58875;BME280;44652;49.040;12.126;2022-08-26T10:37:06;97173.25;;;25.90;63.08
58875;BME280;44652;49.040;12.126;2022-08-26T10:39:54;97156.03;;;25.93;60.83
58875;BME280;44652;49.040;12.126;2022-08-26T10:42:30;97153.06;;;25.77;62.38
58875;BME280;44652;49.040;12.126;2022-08-26T10:45:05;97164.41;;;25.41;62.95
58875;BME280;44652;49.040;12.126;2022-08-26T10:47:46;97153.06;;;25.33;63.99
58875;BME280;44652;49.040;12.126;2022-08-26T10:50:14;97174.25;;;25.66;63.31
58875;BME280;44652;49.040;12.126;2022-08-26T11:07:31;97155.03;;;26.36;62.89
58875;BME280;44652;49.040;12.126;2022-08-26T11:28:42;97122.19;;;26.86;58.60
58875;BME280;44652;49.040;12.126;2022-08-26T11:36:10;97127.91;;;26.60;58.58
58875;BME280;44652;49.040;12.126;2022-08-26T11:38:53;97120.34;;;26.07;60.09
58875;BME280;44652;49.040;12.126;2022-08-26T11:41:21;97122.69;;;25.94;61.46
58875;BME280;44652;49.040;12.126;2022-08-26T11:43:49;97138.41;;;25.84;61.31
58875;BME280;44652;49.040;12.126;2022-08-26T11:46:26;97138.97;;;25.48;61.62
58875;BME280;44652;49.040;12.126;2022-08-26T11:49:05;97154.19;;;24.81;60.70
58875;BME280;44652;49.040;12.126;2022-08-26T11:51:34;97148.44;;;24.16;61.46
58875;BME280;44652;49.040;12.126;2022-08-26T11:54:11;97149.19;;;22.50;75.81
58875;BME280;44652;49.040;12.126;2022-08-26T11:56:40;97175.97;;;21.50;90.02
58875;BME280;44652;49.040;12.126;2022-08-26T11:59:10;97171.91;;;18.14;100.00
58875;BME280;44652;49.040;12.126;2022-08-26T12:01:43;97182.50;;;17.20;100.00
58875;BME280;44652;49.040;12.126;2022-08-26T12:04:21;56916.91;;;-145.08;100.00
58875;BME280;44652;49.040;12.126;2022-08-26T12:06:51;56916.91;;;-145.08;100.00
58875;BME280;44652;49.040;12.126;2022-08-26T12:09:21;56916.91;;;-145.08;100.00
58875;BME280;44652;49.040;12.126;2022-08-26T12:11:48;56916.91;;;-145.08;100.00
58875;BME280;44652;49.040;12.126;2022-08-26T12:14:25;56916.91;;;-145.08;100.00
58875;BME280;44652;49.040;12.126;2022-08-26T12:16:53;56916.91;;;-145.08;100.00
58875;BME280;44652;49.040;12.126;2022-08-26T12:19:27;56916.91;;;-145.08;100.00
58875;BME280;44652;49.040;12.126;2022-08-26T12:22:02;56916.91;;;-145.08;100.00
58875;BME280;44652;49.040;12.126;2022-08-26T12:24:30;56916.91;;;-145.08;100.00
58875;BME280;44652;49.040;12.126;2022-08-26T12:27:20;56916.91;;;-145.08;100.00
58875;BME280;44652;49.040;12.126;2022-08-26T12:30:04;56916.91;;;-145.08;100.00
58875;BME280;44652;49.040;12.126;2022-08-26T12:32:35;56916.91;;;-145.08;100.00
58875;BME280;44652;49.040;12.126;2022-08-26T12:35:22;56916.91;;;-145.08;100.00
58875;BME280;44652;49.040;12.126;2022-08-26T12:37:52;56916.91;;;-145.08;100.00
58875;BME280;44652;49.040;12.126;2022-08-26T12:40:40;56916.91;;;-145.08;100.00
58875;BME280;44652;49.040;12.126;2022-08-26T12:43:10;56916.91;;;-145.08;100.00
58875;BME280;44652;49.040;12.126;2022-08-26T12:45:42;56916.91;;;-145.08;100.00
58875;BME280;44652;49.040;12.126;2022-08-26T12:48:29;56916.91;;;-145.08;100.00
58875;BME280;44652;49.040;12.126;2022-08-26T12:50:57;56916.91;;;-145.08;100.00
58875;BME280;44652;49.040;12.126;2022-08-26T12:53:31;56916.91;;;-145.08;100.00
58875;BME280;44652;49.040;12.126;2022-08-26T12:56:04;56916.91;;;-145.08;100.00
58875;BME280;44652;49.040;12.126;2022-08-26T12:58:42;56916.91;;;-145.08;100.00
58875;BME280;44652;49.040;12.126;2022-08-26T13:03:41;56916.91;;;-145.08;100.00
58875;BME280;44652;49.040;12.126;2022-08-26T13:09:02;56916.91;;;-145.08;100.00
58875;BME280;44652;49.040;12.126;2022-08-26T13:14:08;56916.91;;;-145.08;100.00
58875;BME280;44652;49.040;12.126;2022-08-26T13:16:37;56916.91;;;-145.08;100.00
58875;BME280;44652;49.040;12.126;2022-08-26T13:19:07;56916.91;;;-145.08;100.00
58875;BME280;44652;49.040;12.126;2022-08-26T13:21:42;56916.91;;;-145.08;100.00
58875;BME280;44652;49.040;12.126;2022-08-26T13:24:11;56916.91;;;-145.08;100.00
58875;BME280;44652;49.040;12.126;2022-08-26T13:26:40;56916.91;;;-145.08;100.00
58875;BME280;44652;49.040;12.126;2022-08-26T13:29:08;56916.91;;;-145.08;100.00
58875;BME280;44652;49.040;12.126;2022-08-26T13:31:38;56916.91;;;-145.08;100.00
58875;BME280;44652;49.040;12.126;2022-08-26T13:34:07;56916.91;;;-145.08;100.00
58875;BME280;44652;49.040;12.126;2022-08-26T13:36:34;56916.91;;;-145.08;100.00
58875;BME280;44652;49.040;12.126;2022-08-26T13:39:01;56916.91;;;-145.08;100.00
58875;BME280;44652;49.040;12.126;2022-08-26T13:41:28;56916.91;;;-145.08;100.00
58875;BME280;44652;49.040;12.126;2022-08-26T13:43:55;56916.91;;;-145.08;100.00
58875;BME280;44652;49.040;12.126;2022-08-26T13:46:25;56916.91;;;-145.08;100.00
58875;BME280;44652;49.040;12.126;2022-08-26T13:48:53;56916.91;;;-145.08;100.00
58875;BME280;44652;49.040;12.126;2022-08-26T13:51:20;56916.91;;;-145.08;100.00
58875;BME280;44652;49.040;12.126;2022-08-26T13:53:48;56916.91;;;-145.08;100.00
58875;BME280;44652;49.040;12.126;2022-08-26T13:56:15;56916.91;;;-145.08;100.00
58875;BME280;44652;49.040;12.126;2022-08-26T13:58:42;56916.91;;;-145.08;100.00
58875;BME280;44652;49.040;12.126;2022-08-26T14:01:12;56916.91;;;-145.08;100.00
58875;BME280;44652;49.040;12.126;2022-08-26T14:03:39;56916.91;;;-145.08;100.00
58875;BME280;44652;49.040;12.126;2022-08-26T14:06:06;56916.91;;;-145.08;100.00
58875;BME280;44652;49.040;12.126;2022-08-26T14:08:32;56916.91;;;-145.08;100.00
58875;BME280;44652;49.040;12.126;2022-08-26T14:10:59;56916.91;;;-145.08;100.00
58875;BME280;44652;49.040;12.126;2022-08-26T14:13:26;56916.91;;;-145.08;100.00
58875;BME280;44652;49.040;12.126;2022-08-26T14:15:53;56916.91;;;-145.08;100.00
58875;BME280;44652;49.040;12.126;2022-08-26T14:18:26;56916.91;;;-145.08;100.00
58875;BME280;44652;49.040;12.126;2022-08-26T14:20:54;56916.91;;;-145.08;100.00
58875;BME280;44652;49.040;12.126;2022-08-26T14:23:21;56916.91;;;-145.08;100.00
58875;BME280;44652;49.040;12.126;2022-08-26T14:25:48;56916.91;;;-145.08;100.00
58875;BME280;44652;49.040;12.126;2022-08-26T14:28:14;56916.91;;;-145.08;100.00
58875;BME280;44652;49.040;12.126;2022-08-26T14:30:51;56916.91;;;-145.08;100.00
58875;BME280;44652;49.040;12.126;2022-08-26T14:33:22;56916.91;;;-145.08;100.00
58875;BME280;44652;49.040;12.126;2022-08-26T14:35:50;56916.91;;;-145.08;100.00
58875;BME280;44652;49.040;12.126;2022-08-26T14:38:16;56916.91;;;-145.08;100.00
58875;BME280;44652;49.040;12.126;2022-08-26T14:40:43;56916.91;;;-145.08;100.00
58875;BME280;44652;49.040;12.126;2022-08-26T14:43:12;56916.91;;;-145.08;100.00
58875;BME280;44652;49.040;12.126;2022-08-26T14:45:42;56916.91;;;-145.08;100.00
58875;BME280;44652;49.040;12.126;2022-08-26T14:48:09;56916.91;;;-145.08;100.00
58875;BME280;44652;49.040;12.126;2022-08-26T14:50:36;56916.91;;;-145.08;100.00
58875;BME280;44652;49.040;12.126;2022-08-26T14:53:03;56916.91;;;-145.08;100.00
58875;BME280;44652;49.040;12.126;2022-08-26T14:55:48;56916.91;;;-145.08;100.00
58875;BME280;44652;49.040;12.126;2022-08-26T14:58:15;56916.91;;;-145.08;100.00
58875;BME280;44652;49.040;12.126;2022-08-26T15:00:42;56916.91;;;-145.08;100.00
58875;BME280;44652;49.040;12.126;2022-08-26T15:03:09;56916.91;;;-145.08;100.00
58875;BME280;44652;49.040;12.126;2022-08-26T15:05:36;56916.91;;;-145.08;100.00
58875;BME280;44652;49.040;12.126;2022-08-26T15:08:04;56916.91;;;-145.08;100.00
58875;BME280;44652;49.040;12.126;2022-08-26T15:10:36;56916.91;;;-145.08;100.00
58875;BME280;44652;49.040;12.126;2022-08-26T15:13:03;56916.91;;;-145.08;100.00
58875;BME280;44652;49.040;12.126;2022-08-26T15:15:29;56916.91;;;-145.08;100.00
58875;BME280;44652;49.040;12.126;2022-08-26T15:17:56;56916.91;;;-145.08;100.00
58875;BME280;44652;49.040;12.126;2022-08-26T15:20:23;56916.91;;;-145.08;100.00
58875;BME280;44652;49.040;12.126;2022-08-26T15:22:49;56916.91;;;-145.08;100.00
58875;BME280;44652;49.040;12.126;2022-08-26T15:25:16;56916.91;;;-145.08;100.00
58875;BME280;44652;49.040;12.126;2022-08-26T15:27:43;56916.91;;;-145.08;100.00
58875;BME280;44652;49.040;12.126;2022-08-26T15:30:11;56916.91;;;-145.08;100.00
58875;BME280;44652;49.040;12.126;2022-08-26T15:32:38;56916.91;;;-145.08;100.00
58875;BME280;44652;49.040;12.126;2022-08-26T15:35:05;56916.91;;;-145.08;100.00
58875;BME280;44652;49.040;12.126;2022-08-26T15:37:34;56916.91;;;-145.08;100.00
58875;BME280;44652;49.040;12.126;2022-08-26T15:40:02;56916.91;;;-145.08;100.00
58875;BME280;44652;49.040;12.126;2022-08-26T15:42:29;56916.91;;;-145.08;100.00
58875;BME280;44652;49.040;12.126;2022-08-26T15:44:55;56916.91;;;-145.08;100.00
58875;BME280;44652;49.040;12.126;2022-08-26T15:47:22;56916.91;;;-145.08;100.00
58875;BME280;44652;49.040;12.126;2022-08-26T15:49:49;56916.91;;;-145.08;100.00
58875;BME280;44652;49.040;12.126;2022-08-26T15:52:16;56916.91;;;-145.08;100.00
58875;BME280;44652;49.040;12.126;2022-08-26T15:54:43;56916.91;;;-145.08;100.00
58875;BME280;44652;49.040;12.126;2022-08-26T15:57:10;56916.91;;;-145.08;100.00
58875;BME280;44652;49.040;12.126;2022-08-26T15:59:40;56916.91;;;-145.08;100.00
58875;BME280;44652;49.040;12.126;2022-08-26T16:02:07;56916.91;;;-145.08;100.00
58875;BME280;44652;49.040;12.126;2022-08-26T16:04:35;56916.91;;;-145.08;100.00
58875;BME280;44652;49.040;12.126;2022-08-26T16:07:02;56916.91;;;-145.08;100.00
58875;BME280;44652;49.040;12.126;2022-08-26T16:09:29;56916.91;;;-145.08;100.00
58875;BME280;44652;49.040;12.126;2022-08-26T16:11:56;56916.91;;;-145.08;100.00
58875;BME280;44652;49.040;12.126;2022-08-26T16:14:24;56916.91;;;-145.08;100.00
58875;BME280;44652;49.040;12.126;2022-08-26T16:16:51;56916.91;;;-145.08;100.00
58875;BME280;44652;49.040;12.126;2022-08-26T16:19:18;56916.91;;;-145.08;100.00
58875;BME280;44652;49.040;12.126;2022-08-26T16:21:45;56916.91;;;-145.08;100.00
58875;BME280;44652;49.040;12.126;2022-08-26T16:24:12;56916.91;;;-145.08;100.00
58875;BME280;44652;49.040;12.126;2022-08-26T16:26:41;56916.91;;;-145.08;100.00
58875;BME280;44652;49.040;12.126;2022-08-26T16:29:11;56916.91;;;-145.08;100.00
58875;BME280;44652;49.040;12.126;2022-08-26T16:31:40;56916.91;;;-145.08;100.00
58875;BME280;44652;49.040;12.126;2022-08-26T16:34:08;56916.91;;;-145.08;100.00
58875;BME280;44652;49.040;12.126;2022-08-26T16:36:36;56916.91;;;-145.08;100.00
58875;BME280;44652;49.040;12.126;2022-08-26T16:39:05;56916.91;;;-145.08;100.00
58875;BME280;44652;49.040;12.126;2022-08-26T16:41:32;56916.91;;;-145.08;100.00
58875;BME280;44652;49.040;12.126;2022-08-26T16:43:59;56916.91;;;-145.08;100.00
58875;BME280;44652;49.040;12.126;2022-08-26T16:46:26;56916.91;;;-145.08;100.00
58875;BME280;44652;49.040;12.126;2022-08-26T16:48:55;56916.91;;;-145.08;100.00
58875;BME280;44652;49.040;12.126;2022-08-26T16:51:23;56916.91;;;-145.08;100.00
58875;BME280;44652;49.040;12.126;2022-08-26T16:53:53;56916.91;;;-145.08;100.00
58875;BME280;44652;49.040;12.126;2022-08-26T16:56:26;56916.91;;;-145.08;100.00
58875;BME280;44652;49.040;12.126;2022-08-26T16:59:01;56916.91;;;-145.08;100.00
58875;BME280;44652;49.040;12.126;2022-08-26T17:01:28;56916.91;;;-145.08;100.00
58875;BME280;44652;49.040;12.126;2022-08-26T17:03:55;56916.91;;;-145.08;100.00
58875;BME280;44652;49.040;12.126;2022-08-26T17:06:21;56916.91;;;-145.08;100.00
58875;BME280;44652;49.040;12.126;2022-08-26T17:08:48;56916.91;;;-145.08;100.00
58875;BME280;44652;49.040;12.126;2022-08-26T17:11:15;56916.91;;;-145.08;100.00
58875;BME280;44652;49.040;12.126;2022-08-26T17:13:41;56916.91;;;-145.08;100.00
58875;BME280;44652;49.040;12.126;2022-08-26T17:16:09;56916.91;;;-145.08;100.00
58875;BME280;44652;49.040;12.126;2022-08-26T17:18:37;56916.91;;;-145.08;100.00
58875;BME280;44652;49.040;12.126;2022-08-26T17:21:07;56916.91;;;-145.08;100.00
58875;BME280;44652;49.040;12.126;2022-08-26T17:23:35;56916.91;;;-145.08;100.00
58875;BME280;44652;49.040;12.126;2022-08-26T17:26:02;56916.91;;;-145.08;100.00
58875;BME280;44652;49.040;12.126;2022-08-26T17:28:29;56916.91;;;-145.08;100.00
58875;BME280;44652;49.040;12.126;2022-08-26T17:30:56;56916.91;;;-145.08;100.00
58875;BME280;44652;49.040;12.126;2022-08-26T17:33:24;56916.91;;;-145.08;100.00
58875;BME280;44652;49.040;12.126;2022-08-26T17:35:51;56916.91;;;-145.08;100.00
58875;BME280;44652;49.040;12.126;2022-08-26T17:38:19;56916.91;;;-145.08;100.00
58875;BME280;44652;49.040;12.126;2022-08-26T17:40:46;56916.91;;;-145.08;100.00
58875;BME280;44652;49.040;12.126;2022-08-26T17:43:13;56916.91;;;-145.08;100.00
58875;BME280;44652;49.040;12.126;2022-08-26T17:45:40;56916.91;;;-145.08;100.00
58875;BME280;44652;49.040;12.126;2022-08-26T17:48:07;56916.91;;;-145.08;100.00
58875;BME280;44652;49.040;12.126;2022-08-26T17:50:34;56916.91;;;-145.08;100.00
58875;BME280;44652;49.040;12.126;2022-08-26T17:53:00;56916.91;;;-145.08;100.00
58875;BME280;44652;49.040;12.126;2022-08-26T17:55:27;56916.91;;;-145.08;100.00
58875;BME280;44652;49.040;12.126;2022-08-26T17:57:54;56916.91;;;-145.08;100.00
58875;BME280;44652;49.040;12.126;2022-08-26T18:00:24;56916.91;;;-145.08;100.00
58875;BME280;44652;49.040;12.126;2022-08-26T18:02:55;56916.91;;;-145.08;100.00
58875;BME280;44652;49.040;12.126;2022-08-26T18:05:22;56916.91;;;-145.08;100.00
58875;BME280;44652;49.040;12.126;2022-08-26T18:07:49;56916.91;;;-145.08;100.00
58875;BME280;44652;49.040;12.126;2022-08-26T18:10:17;56916.91;;;-145.08;100.00
58875;BME280;44652;49.040;12.126;2022-08-26T18:12:44;56916.91;;;-145.08;100.00
58875;BME280;44652;49.040;12.126;2022-08-26T18:15:15;56916.91;;;-145.08;100.00
58875;BME280;44652;49.040;12.126;2022-08-26T18:17:42;56916.91;;;-145.08;100.00
58875;BME280;44652;49.040;12.126;2022-08-26T18:20:12;56916.91;;;-145.08;100.00
58875;BME280;44652;49.040;12.126;2022-08-26T18:22:40;56916.91;;;-145.08;100.00
58875;BME280;44652;49.040;12.126;2022-08-26T18:25:07;56916.91;;;-145.08;100.00
58875;BME280;44652;49.040;12.126;2022-08-26T18:27:35;56916.91;;;-145.08;100.00
58875;BME280;44652;49.040;12.126;2022-08-26T18:30:12;56916.91;;;-145.08;100.00
58875;BME280;44652;49.040;12.126;2022-08-26T18:32:42;56916.91;;;-145.08;100.00
58875;BME280;44652;49.040;12.126;2022-08-26T18:35:10;56916.91;;;-145.08;100.00
58875;BME280;44652;49.040;12.126;2022-08-26T18:37:36;56916.91;;;-145.08;100.00
58875;BME280;44652;49.040;12.126;2022-08-26T18:40:08;56916.91;;;-145.08;100.00
58875;BME280;44652;49.040;12.126;2022-08-26T18:42:35;56916.91;;;-145.08;100.00
58875;BME280;44652;49.040;12.126;2022-08-26T18:45:06;56916.91;;;-145.08;100.00
58875;BME280;44652;49.040;12.126;2022-08-26T18:47:33;56916.91;;;-145.08;100.00
58875;BME280;44652;49.040;12.126;2022-08-26T18:50:01;56916.91;;;-145.08;100.00
58875;BME280;44652;49.040;12.126;2022-08-26T18:52:30;56916.91;;;-145.08;100.00
58875;BME280;44652;49.040;12.126;2022-08-26T18:54:57;56916.91;;;-145.08;100.00
58875;BME280;44652;49.040;12.126;2022-08-26T18:57:24;56916.91;;;-145.08;100.00
58875;BME280;44652;49.040;12.126;2022-08-26T18:59:51;56916.91;;;-145.08;100.00
58875;BME280;44652;49.040;12.126;2022-08-26T19:02:17;56916.91;;;-145.08;100.00
58875;BME280;44652;49.040;12.126;2022-08-26T19:04:44;56916.91;;;-145.08;100.00
58875;BME280;44652;49.040;12.126;2022-08-26T19:07:11;56916.91;;;-145.08;100.00
58875;BME280;44652;49.040;12.126;2022-08-26T19:09:37;56916.91;;;-145.08;100.00
58875;BME280;44652;49.040;12.126;2022-08-26T19:12:04;56916.91;;;-145.08;100.00
58875;BME280;44652;49.040;12.126;2022-08-26T19:14:31;56916.91;;;-145.08;100.00
58875;BME280;44652;49.040;12.126;2022-08-26T19:16:57;56916.91;;;-145.08;100.00
58875;BME280;44652;49.040;12.126;2022-08-26T19:19:26;56916.91;;;-145.08;100.00
58875;BME280;44652;49.040;12.126;2022-08-26T19:21:53;56916.91;;;-145.08;100.00
58875;BME280;44652;49.040;12.126;2022-08-26T19:24:20;56916.91;;;-145.08;100.00
58875;BME280;44652;49.040;12.126;2022-08-26T19:26:50;56916.91;;;-145.08;100.00
58875;BME280;44652;49.040;12.126;2022-08-26T19:29:25;56916.91;;;-145.08;100.00
58875;BME280;44652;49.040;12.126;2022-08-26T19:31:52;56916.91;;;-145.08;100.00
58875;BME280;44652;49.040;12.126;2022-08-26T19:34:19;56916.91;;;-145.08;100.00
58875;BME280;44652;49.040;12.126;2022-08-26T19:36:46;56916.91;;;-145.08;100.00
58875;BME280;44652;49.040;12.126;2022-08-26T19:39:13;56916.91;;;-145.08;100.00
58875;BME280;44652;49.040;12.126;2022-08-26T19:41:40;56916.91;;;-145.08;100.00
58875;BME280;44652;49.040;12.126;2022-08-26T19:44:13;56916.91;;;-145.08;100.00
58875;BME280;44652;49.040;12.126;2022-08-26T19:47:00;56916.91;;;-145.08;100.00
58875;BME280;44652;49.040;12.126;2022-08-26T19:49:27;56916.91;;;-145.08;100.00
58875;BME280;44652;49.040;12.126;2022-08-26T19:51:54;56916.91;;;-145.08;100.00